Time;durP1;ratioP1;P1;durP2;ratioP2;P2;SDS_P1;SDS_P2;PMS_P1;PMS_P2;Temp;Humidity;BMP_temperature;BMP_pressure;BME280_temperature;BME280_humidity;BME280_pressure;Samples;Min_cycle;Max_cycle;Signal;HPM_P1;HPM_P2
2021/05/08 00:02:30;;;;;;;1.75;1.75;;;;;;;0.99;100.00;99494.84;5027319;28;20762;-78
2021/05/08 00:05:34;;;;;;;3.38;3.08;;;;;;;1.02;100.00;99488.50;5027523;28;20096;-79
2021/05/08 00:08:39;;;;;;;7.78;3.97;;;;;;;1.06;100.00;99477.47;5027693;28;20060;-78
2021/05/08 00:11:43;;;;;;;2.65;2.45;;;;;;;1.11;100.00;99469.53;5025620;28;20070;-78
2021/05/08 00:14:47;;;;;;;2.13;1.75;;;;;;;1.14;100.00;99457.72;5026067;28;20052;-78
2021/05/08 00:17:50;;;;;;;1.83;1.80;;;;;;;1.19;100.00;99443.50;5022395;28;20048;-78
2021/05/08 00:20:54;;;;;;;2.20;2.10;;;;;;;1.21;100.00;99446.59;5021360;28;20087;-78
2021/05/08 00:23:58;;;;;;;3.03;2.83;;;;;;;1.23;100.00;99438.75;5023736;28;20064;-79
2021/05/08 00:27:02;;;;;;;7.82;2.85;;;;;;;1.27;100.00;99425.72;5026762;28;20516;-78
2021/05/08 00:30:07;;;;;;;4.63;3.00;;;;;;;1.31;100.00;99420.16;5025580;28;20825;-79
2021/05/08 00:33:11;;;;;;;1.92;1.92;;;;;;;1.38;100.00;99412.56;5027492;28;20064;-79
2021/05/08 00:36:15;;;;;;;3.67;3.05;;;;;;;1.43;100.00;99398.34;5029737;28;20344;-78
2021/05/08 00:39:18;;;;;;;6.07;3.30;;;;;;;1.50;100.00;99408.38;5037906;28;20064;-78
2021/05/08 00:42:22;;;;;;;2.55;2.38;;;;;;;1.56;100.00;99401.19;5029494;28;20087;-78
2021/05/08 00:45:25;;;;;;;2.72;2.25;;;;;;;1.63;100.00;99405.75;5025003;28;20036;-79
2021/05/08 00:48:32;;;;;;;2.13;2.03;;;;;;;1.66;100.00;99393.94;5026147;28;20520;-78
2021/05/08 00:51:36;;;;;;;10.73;3.08;;;;;;;1.69;100.00;99387.59;5026434;28;20044;-78
2021/05/08 00:54:41;;;;;;;3.45;2.35;;;;;;;1.72;100.00;99375.75;5026683;28;20040;-78
2021/05/08 00:57:45;;;;;;;4.57;3.03;;;;;;;1.72;100.00;99375.75;5026769;28;20071;-77
2021/05/08 01:00:53;;;;;;;5.03;2.40;;;;;;;1.75;100.00;99363.94;5022194;28;20154;-76
2021/05/08 01:03:57;;;;;;;1.70;1.65;;;;;;;1.78;100.00;99357.56;5030115;28;20047;-77
2021/05/08 01:07:01;;;;;;;2.20;2.10;;;;;;;1.82;100.00;99347.28;5032807;28;20174;-78
2021/05/08 01:10:07;;;;;;;3.70;2.10;;;;;;;1.87;100.00;99339.31;5029110;28;20039;-78
2021/05/08 01:13:11;;;;;;;3.88;2.17;;;;;;;1.93;100.00;99339.53;5032429;28;20044;-77
2021/05/08 01:16:15;;;;;;;1.67;1.60;;;;;;;1.96;100.00;99333.22;5031035;28;20060;-78
2021/05/08 01:19:20;;;;;;;2.30;2.10;;;;;;;2.00;100.00;99325.66;5024264;28;20052;-77
2021/05/08 01:22:24;;;;;;;2.10;1.90;;;;;;;2.07;100.00;99328.22;5026381;28;20036;-77
2021/05/08 01:25:28;;;;;;;18.95;2.72;;;;;;;2.09;100.00;99306.59;5028217;28;20249;-78
2021/05/08 01:28:32;;;;;;;2.15;1.55;;;;;;;2.12;100.00;99305.75;5027578;28;20068;-78
2021/05/08 01:31:35;;;;;;;2.05;1.95;;;;;;;2.18;100.00;99304.78;5026977;28;20495;-78
2021/05/08 01:34:39;;;;;;;2.45;2.28;;;;;;;2.22;100.00;99299.19;5035880;28;20056;-78
2021/05/08 01:37:44;;;;;;;4.53;2.53;;;;;;;2.28;100.00;99291.97;5057537;28;20048;-78
2021/05/08 01:40:58;;;;;;;1.98;1.88;;;;;;;2.34;100.00;99294.97;5059237;28;20385;-78
2021/05/08 01:44:08;;;;;;;2.00;1.90;;;;;;;2.38;100.00;99284.66;5060068;28;20059;-79
2021/05/08 01:47:11;;;;;;;3.13;2.92;;;;;;;2.42;100.00;99280.59;5053627;28;20051;-77
2021/05/08 01:50:18;;;;;;;1.60;1.60;;;;;;;2.47;100.00;99277.31;5044369;28;20048;-77
2021/05/08 01:53:22;;;;;;;1.60;1.60;;;;;;;2.52;100.00;99271.28;5044013;28;20056;-78
2021/05/08 01:56:25;;;;;;;2.75;2.60;;;;;;;2.55;100.00;99267.66;5033187;28;20052;-78
2021/05/08 01:59:28;;;;;;;2.50;2.35;;;;;;;2.59;100.00;99257.34;5033524;28;20056;-78
2021/05/08 02:02:32;;;;;;;6.68;2.95;;;;;;;2.66;100.00;99248.13;5033013;28;20060;-78
2021/05/08 02:05:37;;;;;;;1.90;1.80;;;;;;;2.75;100.00;99246.25;5044165;28;20413;-78
2021/05/08 02:08:40;;;;;;;3.45;2.00;;;;;;;2.84;100.00;99240.88;5032678;28;20044;-78
2021/05/08 02:11:43;;;;;;;7.53;2.30;;;;;;;2.97;100.00;99238.91;5043404;28;20048;-78
2021/05/08 02:14:46;;;;;;;2.92;2.28;;;;;;;3.13;100.00;99226.28;5043599;28;20052;-76
2021/05/08 02:17:50;;;;;;;2.08;1.92;;;;;;;3.33;100.00;99229.56;5043794;28;20052;-76
2021/05/08 02:20:54;;;;;;;2.20;2.10;;;;;;;3.41;100.00;99217.13;5033301;28;20521;-78
2021/05/08 02:23:57;;;;;;;3.60;2.22;;;;;;;3.54;100.00;99215.88;5032943;28;20060;-79
2021/05/08 02:27:00;;;;;;;1.73;1.63;;;;;;;3.62;100.00;99219.16;5043600;28;20052;-78
2021/05/08 02:30:06;;;;;;;1.73;1.73;;;;;;;3.72;100.00;99215.31;5043503;28;20048;-78
2021/05/08 02:33:10;;;;;;;2.83;2.55;;;;;;;3.88;100.00;99201.34;5043298;28;20052;-78
2021/05/08 02:36:13;;;;;;;3.53;2.20;;;;;;;3.97;100.00;99192.41;5032976;28;20048;-79
2021/05/08 02:39:17;;;;;;;1.95;1.85;;;;;;;4.11;100.00;99195.44;5043352;28;20060;-79
2021/05/08 02:42:20;;;;;;;2.00;1.83;;;;;;;4.14;100.00;99200.03;5032502;28;20402;-79
2021/05/08 02:45:24;;;;;;;2.40;2.20;;;;;;;4.12;100.00;99187.91;5043113;28;20049;-79
2021/05/08 02:48:27;;;;;;;2.10;2.00;;;;;;;4.17;100.00;99188.13;5051334;28;20044;-79
2021/05/08 02:51:31;;;;;;;6.30;2.22;;;;;;;4.36;100.00;99170.50;5051695;28;20064;-79
2021/05/08 02:54:35;;;;;;;1.08;1.08;;;;;;;4.39;100.00;99164.09;5051648;28;20052;-79
2021/05/08 02:57:39;;;;;;;1.60;1.50;;;;;;;4.33;100.00;99159.63;5051367;28;20047;-79
2021/05/08 03:00:42;;;;;;;3.88;1.42;;;;;;;4.26;100.00;99144.09;5052228;28;20048;-78
2021/05/08 03:03:46;;;;;;;1.45;1.45;;;;;;;4.23;100.00;99130.44;5051659;28;20512;-77
2021/05/08 03:06:49;;;;;;;3.80;1.55;;;;;;;4.21;100.00;99125.38;5051661;28;20048;-78
2021/05/08 03:09:53;;;;;;;1.80;1.63;;;;;;;4.17;100.00;99119.25;5051652;28;20055;-78
2021/05/08 03:12:56;;;;;;;2.05;1.58;;;;;;;4.18;100.00;99120.75;5051379;28;20048;-77
2021/05/08 03:16:00;;;;;;;2.42;1.70;;;;;;;4.20;100.00;99106.56;5062620;28;20064;-77
2021/05/08 03:19:04;;;;;;;2.20;1.85;;;;;;;4.23;100.00;99095.41;5063635;28;20048;-77
2021/05/08 03:22:07;;;;;;;3.83;1.92;;;;;;;4.24;100.00;99091.44;5053016;28;20052;-78
2021/05/08 03:25:11;;;;;;;2.78;1.98;;;;;;;4.32;100.00;99095.44;5052661;28;20048;-78
2021/05/08 03:28:14;;;;;;;2.15;1.90;;;;;;;4.55;100.00;99083.13;5060883;28;20480;-78
2021/05/08 03:31:19;;;;;;;6.95;2.15;;;;;;;4.61;100.00;99071.06;5051580;28;20051;-78
2021/05/08 03:34:23;;;;;;;1.95;1.27;;;;;;;4.63;100.00;99064.34;5051642;28;20052;-79
2021/05/08 03:37:26;;;;;;;2.10;1.88;;;;;;;4.65;100.00;99054.38;5051384;28;20052;-78
2021/05/08 03:40:29;;;;;;;1.85;1.55;;;;;;;4.66;100.00;99049.66;5051416;28;20052;-77
2021/05/08 03:43:33;;;;;;;1.70;1.40;;;;;;;4.66;100.00;99044.13;5053940;28;20374;-78
2021/05/08 03:46:37;;;;;;;5.68;1.52;;;;;;;4.68;100.00;99034.16;5054785;28;20063;-77
2021/05/08 03:49:40;;;;;;;2.45;1.48;;;;;;;4.65;100.00;99020.53;5055669;28;20543;-77
2021/05/08 03:52:43;;;;;;;1.40;1.30;;;;;;;4.53;100.00;99009.16;5055461;28;20064;-77
2021/05/08 03:55:48;;;;;;;3.40;2.28;;;;;;;4.49;100.00;99008.53;5055898;28;20047;-77
2021/05/08 03:58:52;;;;;;;4.55;1.27;;;;;;;4.48;100.00;99003.47;5054673;28;20044;-78
2021/05/08 04:01:55;;;;;;;1.00;1.00;;;;;;;4.39;100.00;99003.44;5055978;28;20054;-80
2021/05/08 04:04:58;;;;;;;10.93;2.17;;;;;;;4.31;100.00;98996.69;5056035;28;20047;-81
2021/05/08 04:08:02;;;;;;;1.17;1.15;;;;;;;4.25;100.00;98990.22;5054517;28;20060;-81
2021/05/08 04:11:05;;;;;;;7.57;1.63;;;;;;;4.20;100.00;98986.06;5055657;28;20048;-81
2021/05/08 04:14:09;;;;;;;3.25;2.28;;;;;;;4.18;100.00;98966.47;5054480;28;20052;-81
2021/05/08 04:17:13;;;;;;;4.28;1.67;;;;;;;4.13;100.00;98961.56;5055432;28;20072;-80
2021/05/08 04:20:16;;;;;;;5.95;2.90;;;;;;;4.11;100.00;98958.50;5054545;28;20043;-79
2021/05/08 04:23:20;;;;;;;1.95;1.40;;;;;;;4.09;100.00;98949.94;5054970;28;20044;-79
2021/05/08 04:26:25;;;;;;;9.88;2.00;;;;;;;4.12;100.00;98943.50;5054363;28;20060;-78
2021/05/08 04:29:28;;;;;;;1.52;1.00;;;;;;;4.12;100.00;98928.94;5053938;28;20060;-77
2021/05/08 04:32:31;;;;;;;8.25;1.60;;;;;;;4.10;100.00;98921.13;5054388;28;20044;-77
2021/05/08 04:35:35;;;;;;;1.50;1.40;;;;;;;4.10;100.00;98914.84;5054247;28;20060;-77
2021/05/08 04:38:39;;;;;;;1.75;1.27;;;;;;;4.09;100.00;98908.59;5054188;28;20048;-77
2021/05/08 04:41:43;;;;;;;1.33;1.23;;;;;;;4.07;100.00;98905.50;5054819;28;20044;-77
2021/05/08 05:10:43;;;;;;;1.40;1.40;;;;;;;3.96;100.00;98822.56;5054600;28;20402;-76
2021/05/08 05:13:47;;;;;;;6.13;2.08;;;;;;;3.96;100.00;98795.03;5046214;28;20057;-75
2021/05/08 05:16:51;;;;;;;1.92;1.83;;;;;;;3.95;100.00;98798.22;5035306;28;20544;-74
2021/05/08 05:19:54;;;;;;;2.33;1.60;;;;;;;3.93;100.00;98779.41;5035592;28;20060;-73
2021/05/08 05:22:58;;;;;;;2.17;1.98;;;;;;;3.93;100.00;98768.38;5035714;28;20064;-76
2021/05/08 05:26:01;;;;;;;2.40;1.77;;;;;;;3.94;100.00;98753.41;5035581;28;20407;-76
2021/05/08 05:29:09;;;;;;;1.35;1.35;;;;;;;3.94;100.00;98734.13;5046982;28;20060;-73
2021/05/08 05:32:13;;;;;;;1.58;1.48;;;;;;;3.94;100.00;98720.34;5046763;28;20124;-74
2021/05/08 05:35:16;;;;;;;12.50;1.90;;;;;;;3.98;100.00;98706.41;5034704;28;20084;-74
2021/05/08 05:38:23;;;;;;;2.05;1.95;;;;;;;4.01;100.00;98705.47;5046542;28;20064;-75
2021/05/08 05:41:27;;;;;;;5.88;1.52;;;;;;;4.04;100.00;98702.59;5046691;28;20129;-76
2021/05/08 05:44:30;;;;;;;2.08;1.95;;;;;;;4.07;100.00;98689.91;5046992;28;20060;-75
2021/05/08 05:47:34;;;;;;;1.15;1.13;;;;;;;4.09;100.00;98682.72;5046777;28;20064;-75
2021/05/08 05:50:39;;;;;;;6.10;1.42;;;;;;;4.09;100.00;98677.19;5046833;28;20071;-75
2021/05/08 05:53:42;;;;;;;1.90;1.80;;;;;;;4.09;100.00;98677.19;5046780;28;20060;-75
2021/05/08 05:56:46;;;;;;;1.92;1.77;;;;;;;4.08;100.00;98672.91;5046124;28;20067;-75
2021/05/08 05:59:50;;;;;;;8.10;2.00;;;;;;;4.08;100.00;98664.63;5046231;28;20068;-75
2021/05/08 06:02:53;;;;;;;4.32;1.65;;;;;;;4.08;100.00;98650.09;5046097;28;20064;-76
2021/05/08 06:05:56;;;;;;;2.15;2.05;;;;;;;4.09;100.00;98643.38;5046029;28;20052;-75
2021/05/08 06:09:00;;;;;;;2.05;1.85;;;;;;;4.09;100.00;98644.13;5045915;28;20064;-76
2021/05/08 06:12:04;;;;;;;1.42;1.33;;;;;;;4.09;100.00;98641.38;5032625;28;20061;-76
2021/05/08 06:15:10;;;;;;;2.22;1.83;;;;;;;4.11;100.00;98627.16;5032772;28;20065;-75
2021/05/08 06:18:13;;;;;;;1.75;1.45;;;;;;;4.14;100.00;98621.47;5032928;28;20064;-75
2021/05/08 06:24:02;;;;;;;2.03;1.15;;;;;;;4.25;100.00;98615.47;5002050;23;20434;-77
2021/05/08 06:27:05;;;;;;;4.10;2.50;;;;;;;4.27;100.00;98604.75;5007013;28;20635;-77
2021/05/08 06:30:09;;;;;;;2.35;2.22;;;;;;;4.32;100.00;98588.38;4996719;28;20049;-77
2021/05/08 06:33:13;;;;;;;3.08;1.90;;;;;;;4.37;100.00;98571.22;4995382;28;20049;-76
2021/05/08 06:36:17;;;;;;;1.35;1.33;;;;;;;4.45;100.00;98560.59;4984611;28;20065;-76
2021/05/08 06:39:22;;;;;;;3.42;2.67;;;;;;;4.49;100.00;98556.44;4983939;28;20049;-75
2021/05/08 06:42:25;;;;;;;3.55;1.40;;;;;;;4.49;100.00;98558.44;4995932;28;20049;-74
2021/05/08 06:45:28;;;;;;;2.88;2.33;;;;;;;4.52;100.00;98533.47;4995438;28;20049;-74
2021/05/08 06:48:32;;;;;;;3.60;1.55;;;;;;;4.53;100.00;98526.72;4983461;28;20041;-74
2021/05/08 06:51:36;;;;;;;1.33;1.20;;;;;;;4.52;100.00;98527.97;4995555;28;20383;-73
2021/05/08 06:54:39;;;;;;;1.20;1.10;;;;;;;4.53;100.00;98507.41;4995123;28;20061;-74
2021/05/08 06:57:42;;;;;;;1.55;1.45;;;;;;;4.56;100.00;98486.44;4995583;28;20734;-75
2021/05/08 07:00:47;;;;;;;1.95;1.70;;;;;;;4.59;100.00;98468.97;4995630;28;20069;-74
2021/05/08 07:03:50;;;;;;;4.35;1.17;;;;;;;4.66;100.00;98437.53;4995126;28;20054;-74
2021/05/08 07:06:54;;;;;;;1.98;1.65;;;;;;;4.68;100.00;98435.06;4983128;28;20049;-74
2021/05/08 07:09:57;;;;;;;1.88;1.58;;;;;;;4.75;100.00;98412.63;4995423;28;20379;-74
2021/05/08 07:13:00;;;;;;;3.90;2.15;;;;;;;4.76;100.00;98408.66;4994669;28;20559;-74
2021/05/08 07:16:04;;;;;;;3.08;1.30;;;;;;;4.82;100.00;98415.03;4995347;28;20045;-74
2021/05/08 07:19:07;;;;;;;1.20;1.20;;;;;;;4.83;100.00;98446.91;4982403;28;20510;-74
2021/05/08 07:22:11;;;;;;;1.42;1.20;;;;;;;4.87;100.00;98423.44;4994055;28;20382;-75
2021/05/08 07:25:14;;;;;;;2.88;1.40;;;;;;;4.92;100.00;98422.75;4994495;28;20066;-74
2021/05/08 07:28:23;;;;;;;0.98;0.98;;;;;;;5.00;100.00;98425.91;5005331;28;20049;-74
2021/05/08 07:31:27;;;;;;;1.27;1.27;;;;;;;5.00;100.00;98428.69;4994982;28;20053;-74
2021/05/08 07:34:30;;;;;;;1.20;1.20;;;;;;;5.01;100.00;98413.63;4994117;28;20049;-73
2021/05/08 07:37:36;;;;;;;2.25;1.40;;;;;;;4.94;100.00;98397.44;4984935;28;20045;-80
2021/05/08 07:40:41;;;;;;;1.05;1.05;;;;;;;4.93;100.00;98393.94;4985459;28;20057;-78
2021/05/08 07:43:45;;;;;;;2.47;1.83;;;;;;;4.93;100.00;98395.94;4996361;28;20053;-79
2021/05/08 07:46:58;;;;;;;2.35;1.90;;;;;;;4.96;100.00;98390.22;4994521;28;20057;-74
2021/05/08 07:50:01;;;;;;;2.80;2.03;;;;;;;4.98;100.00;98373.97;4993671;28;20049;-75
2021/05/08 07:53:04;;;;;;;2.55;1.83;;;;;;;5.02;100.00;98371.81;5004422;28;20049;-75
2021/05/08 07:56:08;;;;;;;6.80;1.58;;;;;;;5.04;100.00;98369.34;4982413;28;20498;-75
2021/05/08 07:59:11;;;;;;;1.63;1.60;;;;;;;5.06;100.00;98355.81;5004564;28;20065;-74
2021/05/08 08:02:16;;;;;;;0.60;0.60;;;;;;;5.10;100.00;98350.88;4993676;28;20061;-74
2021/05/08 08:05:19;;;;;;;1.30;1.30;;;;;;;5.15;100.00;98343.94;5005160;28;20061;-75
2021/05/08 08:08:23;;;;;;;14.15;1.40;;;;;;;5.15;100.00;98352.22;4982229;28;20057;-74
2021/05/08 08:11:27;;;;;;;1.52;1.42;;;;;;;5.16;100.00;98353.72;4994085;28;20387;-75
2021/05/08 08:14:30;;;;;;;6.60;2.10;;;;;;;5.16;100.00;98348.97;4993076;28;20049;-75
2021/05/08 08:17:35;;;;;;;1.17;1.17;;;;;;;5.17;100.00;98349.72;4994237;28;20049;-75
2021/05/08 08:20:39;;;;;;;3.63;1.73;;;;;;;5.20;100.00;98338.50;5003815;28;20054;-73
2021/05/08 08:23:42;;;;;;;0.77;0.77;;;;;;;5.22;100.00;98324.22;5004268;28;20053;-73
2021/05/08 08:26:45;;;;;;;2.03;1.05;;;;;;;5.19;100.00;98325.19;4981746;28;20061;-74
2021/05/08 08:29:48;;;;;;;2.05;1.05;;;;;;;5.20;100.00;98332.22;5004391;28;20046;-74
2021/05/08 08:32:52;;;;;;;0.88;0.88;;;;;;;5.27;100.00;98307.00;4993546;28;20053;-74
2021/05/08 08:35:55;;;;;;;2.13;1.67;;;;;;;5.33;100.00;98297.56;4993520;28;20050;-75
2021/05/08 08:38:58;;;;;;;1.05;1.05;;;;;;;5.37;100.00;98289.09;4993814;28;20049;-75
2021/05/08 08:42:04;;;;;;;0.70;0.70;;;;;;;5.38;100.00;98279.56;5004177;28;20402;-75
2021/05/08 09:40:59;;;;;;;0.88;0.88;;;;;;;6.66;100.00;98174.16;5070032;27;20382;-78
2021/05/08 09:44:10;;;;;;;0.57;0.57;;;;;;;6.73;100.00;98165.41;5029487;28;20423;-78
2021/05/08 09:47:27;;;;;;;2.87;1.20;;;;;;;6.79;100.00;98166.22;5029674;28;20526;-78
2021/05/08 09:50:30;;;;;;;0.70;0.70;;;;;;;6.77;100.00;98161.19;5028110;28;20061;-77
2021/05/08 09:53:34;;;;;;;0.90;0.65;;;;;;;6.79;100.00;98152.38;5026875;28;20061;-78
2021/05/08 09:56:39;;;;;;;0.65;0.63;;;;;;;6.84;100.00;98143.38;5027211;28;20406;-78
2021/05/08 09:59:42;;;;;;;0.75;0.65;;;;;;;6.94;100.00;98139.16;5026833;28;20060;-78
2021/05/08 10:03:00;;;;;;;0.77;0.60;;;;;;;7.08;100.00;98141.00;5028145;28;20145;-77
2021/05/08 10:06:03;;;;;;;1.95;0.90;;;;;;;7.15;100.00;98150.84;5037399;28;20060;-77
2021/05/08 10:09:06;;;;;;;5.72;1.70;;;;;;;7.16;100.00;98142.06;5026758;28;20061;-77
2021/05/08 10:12:12;;;;;;;1.08;1.08;;;;;;;7.18;100.00;98133.28;5037690;28;20064;-77
2021/05/08 10:15:16;;;;;;;0.82;0.40;;;;;;;7.22;100.00;98129.03;5028140;28;20061;-77
2021/05/08 10:18:20;;;;;;;0.57;0.57;;;;;;;7.29;100.00;98123.03;5027131;28;20092;-78
2021/05/08 10:21:24;;;;;;;2.60;0.57;;;;;;;7.29;100.00;98117.50;5026018;28;20061;-78
2021/05/08 10:24:28;;;;;;;0.47;0.47;;;;;;;7.37;100.00;98117.75;5026684;28;20068;-78
2021/05/08 10:27:32;;;;;;;1.40;1.02;;;;;;;7.42;100.00;98130.91;5026667;28;20060;-78
2021/05/08 10:30:39;;;;;;;1.08;0.93;;;;;;;7.46;100.00;98115.56;5027003;28;20522;-77
2021/05/08 10:33:44;;;;;;;0.68;0.68;;;;;;;7.59;100.00;98107.56;5026865;28;20061;-79
2021/05/08 10:36:48;;;;;;;1.23;1.13;;;;;;;7.65;100.00;98104.78;5025981;28;20050;-80
2021/05/08 10:39:59;;;;;;;0.77;0.77;;;;;;;7.75;100.00;98091.50;5023427;28;20060;-77
2021/05/08 10:43:06;;;;;;;0.55;0.30;;;;;;;7.82;100.00;98102.84;5013302;28;20061;-76
2021/05/08 10:46:12;;;;;;;0.45;0.45;;;;;;;7.88;100.00;98091.78;5012700;28;20515;-78
2021/05/08 10:49:17;;;;;;;0.70;0.70;;;;;;;7.92;100.00;98111.69;5012489;28;20530;-76
2021/05/08 10:52:20;;;;;;;0.65;0.50;;;;;;;7.93;100.00;98102.09;5011891;28;20065;-77
2021/05/08 10:55:24;;;;;;;0.70;0.70;;;;;;;8.00;100.00;98096.84;5012314;28;20064;-77
2021/05/08 10:58:33;;;;;;;0.68;0.30;;;;;;;8.11;100.00;98101.66;5021957;28;20061;-74
2021/05/08 11:01:44;;;;;;;1.13;1.13;;;;;;;8.13;100.00;98093.59;5011113;28;20120;-74
2021/05/08 11:05:23;;;;;;;1.23;0.67;;;;;;;8.26;100.00;98093.91;5018929;28;20137;-75
2021/05/08 11:08:29;;;;;;;0.88;0.60;;;;;;;8.36;100.00;98089.59;5014701;28;20072;-75
2021/05/08 11:11:49;;;;;;;0.20;0.20;;;;;;;8.46;100.00;98077.03;5011673;28;20077;-75
2021/05/08 11:14:55;;;;;;;0.55;0.40;;;;;;;8.56;100.00;98075.50;5018210;28;20534;-75
2021/05/08 11:18:02;;;;;;;0.28;0.28;;;;;;;8.66;100.00;98074.00;5017496;28;20065;-77
2021/05/08 11:21:12;;;;;;;0.80;0.80;;;;;;;8.79;100.00;98071.44;5011539;28;20529;-76
2021/05/08 11:24:36;;;;;;;0.93;0.47;;;;;;;8.91;100.00;98066.63;5011539;28;20061;-79
2021/05/08 11:27:39;;;;;;;0.35;0.35;;;;;;;9.03;100.00;98068.88;5012095;28;20117;-76
2021/05/08 11:30:56;;;;;;;0.28;0.25;;;;;;;9.12;100.00;98060.28;5012187;28;20069;-77
2021/05/08 11:34:17;;;;;;;2.60;0.80;;;;;;;9.23;100.00;98062.25;5011875;28;20057;-76
2021/05/08 11:37:21;;;;;;;0.70;0.20;;;;;;;9.35;100.00;98060.97;5011501;28;20411;-77
2021/05/08 11:40:32;;;;;;;0.22;0.20;;;;;;;9.43;100.00;98052.84;5011960;28;20416;-77
2021/05/08 11:43:35;;;;;;;0.70;0.70;;;;;;;9.47;100.00;98053.31;5011862;28;20065;-76
2021/05/08 11:46:39;;;;;;;0.40;0.40;;;;;;;9.52;100.00;98058.13;5011633;28;20065;-76
2021/05/08 11:49:43;;;;;;;1.20;0.60;;;;;;;9.67;100.00;98053.00;5011609;28;20071;-77
2021/05/08 11:52:48;;;;;;;1.98;0.20;;;;;;;9.84;100.00;98043.28;5010635;28;20057;-76
2021/05/08 11:55:51;;;;;;;1.60;0.47;;;;;;;9.98;100.00;98041.44;5022158;28;20061;-77
2021/05/08 11:58:55;;;;;;;1.40;0.70;;;;;;;10.09;100.00;98044.13;5011760;28;20056;-76
2021/05/08 12:02:10;;;;;;;0.35;0.35;;;;;;;10.19;100.00;98025.13;5018465;28;20057;-78
2021/05/08 12:05:14;;;;;;;0.28;0.28;;;;;;;10.25;100.00;98021.03;5012232;28;20061;-76
2021/05/08 12:08:23;;;;;;;0.80;0.35;;;;;;;10.31;100.00;98016.19;5030203;28;20060;-81
2021/05/08 12:11:27;;;;;;;0.63;0.30;;;;;;;10.42;100.00;98021.66;5036354;28;20069;-79
2021/05/08 12:14:42;;;;;;;0.32;0.32;;;;;;;10.53;100.00;98021.56;5019217;28;20061;-78
2021/05/08 12:17:47;;;;;;;1.33;0.38;;;;;;;10.80;100.00;98011.44;5019368;28;20073;-78
2021/05/08 12:20:50;;;;;;;0.70;0.40;;;;;;;10.97;100.00;98008.47;5018966;28;20068;-81
2021/05/08 12:23:54;;;;;;;0.65;0.60;;;;;;;11.20;100.00;98002.13;5014967;28;20060;-79
2021/05/08 12:26:58;;;;;;;0.35;0.20;;;;;;;11.41;100.00;98008.69;5017128;28;20065;-79
2021/05/08 12:30:01;;;;;;;1.38;0.57;;;;;;;11.65;100.00;98002.31;5010781;28;20080;-80
2021/05/08 12:33:15;;;;;;;0.43;0.43;;;;;;;11.93;100.00;98008.28;5012970;28;20534;-79
2021/05/08 12:36:22;;;;;;;0.30;0.30;;;;;;;12.30;100.00;97995.56;5022099;28;20060;-79
2021/05/08 12:39:26;;;;;;;1.15;0.45;;;;;;;12.60;100.00;98010.00;5011550;28;20053;-81
2021/05/08 12:42:46;;;;;;;0.47;0.30;;;;;;;12.84;100.00;98009.84;5011382;28;20065;-80
2021/05/08 12:46:11;;;;;;;3.30;0.40;;;;;;;13.20;100.00;98008.16;5010822;28;20064;-80
2021/05/08 12:49:14;;;;;;;2.13;1.95;;;;;;;13.42;100.00;98002.13;5010963;28;20065;-79
2021/05/08 12:52:22;;;;;;;7.40;4.00;;;;;;;13.47;100.00;98015.22;5010086;28;20064;-81
2021/05/08 12:55:30;;;;;;;12.27;4.60;;;;;;;13.39;100.00;98010.81;5010760;28;20538;-80
2021/05/08 12:58:39;;;;;;;3.63;1.88;;;;;;;13.35;100.00;98008.34;5011113;28;20076;-79
2021/05/08 13:01:44;;;;;;;4.22;2.58;;;;;;;13.37;100.00;98011.38;5010918;28;20061;-80
2021/05/08 13:04:49;;;;;;;3.67;2.80;;;;;;;13.34;100.00;98020.81;5011722;28;20065;-78
2021/05/08 13:08:00;;;;;;;9.70;3.83;;;;;;;13.31;100.00;98035.91;5010531;28;20416;-78
2021/05/08 13:11:04;;;;;;;1.92;1.42;;;;;;;13.23;100.00;98029.44;5010570;28;20526;-79
2021/05/08 13:14:29;;;;;;;3.63;1.25;;;;;;;13.13;100.00;98035.97;5010496;28;20065;-79
2021/05/08 13:17:32;;;;;;;4.38;1.15;;;;;;;13.07;100.00;98032.56;5009414;28;20057;-79
2021/05/08 13:20:38;;;;;;;2.58;0.88;;;;;;;13.04;100.00;98017.56;5010166;28;21054;-77
2021/05/08 13:23:42;;;;;;;2.03;1.30;;;;;;;13.10;100.00;98020.31;5010476;28;20065;-78
2021/05/08 13:26:45;;;;;;;1.33;0.95;;;;;;;13.16;100.00;98013.31;5010204;28;20061;-79
2021/05/08 13:29:48;;;;;;;5.53;1.15;;;;;;;13.23;100.00;98021.03;5011499;28;20065;-79
2021/05/08 13:32:54;;;;;;;1.83;0.63;;;;;;;13.33;100.00;98026.97;5010345;28;20061;-78
2021/05/08 13:35:58;;;;;;;1.75;0.65;;;;;;;13.36;100.00;98031.50;5009965;28;20061;-78
2021/05/08 13:39:05;;;;;;;3.63;0.98;;;;;;;13.30;100.00;98033.63;5009897;28;20045;-78
2021/05/08 13:42:08;;;;;;;1.33;0.63;;;;;;;13.25;100.00;98038.06;5010355;28;20056;-79
2021/05/08 13:45:14;;;;;;;0.63;0.20;;;;;;;13.29;100.00;98034.94;5009913;28;20060;-79
2021/05/08 13:48:17;;;;;;;3.63;0.20;;;;;;;13.38;100.00;98032.44;5009812;28;20699;-80
2021/05/08 13:51:21;;;;;;;3.75;0.63;;;;;;;13.58;100.00;98017.78;5010282;28;20061;-79
2021/05/08 13:54:25;;;;;;;0.32;0.32;;;;;;;13.75;100.00;98027.88;5010130;28;20057;-79
2021/05/08 13:57:28;;;;;;;4.90;1.08;;;;;;;13.77;100.00;98016.91;5010066;28;20061;-78
2021/05/08 14:00:32;;;;;;;1.52;1.10;;;;;;;13.68;100.00;98023.69;5009694;28;20057;-78
2021/05/08 14:03:35;;;;;;;7.32;3.58;;;;;;;13.64;100.00;98014.88;5011435;28;20061;-78
2021/05/08 14:06:39;;;;;;;11.57;5.47;;;;;;;13.73;100.00;98024.88;5010133;28;20084;-78
2021/05/08 14:09:43;;;;;;;9.23;5.57;;;;;;;13.73;100.00;98025.59;5023537;28;20057;-79
2021/05/08 14:12:46;;;;;;;8.00;4.68;;;;;;;13.86;100.00;98022.78;5030852;28;20057;-79
2021/05/08 14:15:50;;;;;;;5.15;3.92;;;;;;;14.11;100.00;98020.44;5016906;28;20061;-78
2021/05/08 14:18:54;;;;;;;6.47;3.85;;;;;;;14.26;100.00;98020.59;5013300;28;20088;-78
2021/05/08 14:21:57;;;;;;;3.78;3.42;;;;;;;14.31;100.00;98022.56;5012979;28;20069;-79
2021/05/08 14:25:01;;;;;;;5.75;3.55;;;;;;;14.29;100.00;98036.34;5013353;28;20064;-79
2021/05/08 14:28:05;;;;;;;2.97;2.78;;;;;;;14.29;100.00;98036.34;5013490;28;20053;-78
2021/05/08 14:31:08;;;;;;;2.95;1.60;;;;;;;14.14;100.00;98033.38;5013270;28;20419;-78
2021/05/08 14:34:12;;;;;;;5.50;3.50;;;;;;;14.02;100.00;98034.91;5013493;28;20057;-78
2021/05/08 14:37:15;;;;;;;3.55;3.00;;;;;;;13.84;100.00;98035.81;5013071;28;20540;-79
2021/05/08 14:40:18;;;;;;;3.65;2.47;;;;;;;13.72;100.00;98040.13;5012418;28;20061;-79
2021/05/08 14:43:22;;;;;;;1.75;1.63;;;;;;;13.49;100.00;98046.19;5014327;28;20053;-79
2021/05/08 14:46:25;;;;;;;1.40;0.77;;;;;;;13.29;100.00;98051.69;5022425;28;20061;-78
2021/05/08 14:49:30;;;;;;;0.80;0.80;;;;;;;13.12;100.00;98043.63;5015377;28;20061;-78
2021/05/08 14:52:34;;;;;;;0.40;0.40;;;;;;;13.07;100.00;98035.34;5014787;28;20057;-78
2021/05/08 14:55:39;;;;;;;1.13;0.73;;;;;;;13.05;100.00;98041.47;5011778;28;20064;-79
2021/05/08 14:58:42;;;;;;;0.85;0.55;;;;;;;12.95;100.00;98043.91;5012555;28;20053;-79
2021/05/08 15:01:46;;;;;;;3.17;2.05;;;;;;;12.97;100.00;98040.59;5011648;28;20068;-79
2021/05/08 15:04:49;;;;;;;2.17;1.75;;;;;;;13.03;100.00;98044.03;5011832;28;20061;-79
2021/05/08 15:07:52;;;;;;;2.55;2.28;;;;;;;12.96;100.00;98041.88;5011636;28;20525;-79
2021/05/08 15:10:56;;;;;;;5.85;2.30;;;;;;;12.90;100.00;98044.78;5011541;28;20080;-79
2021/05/08 15:13:59;;;;;;;0.73;0.40;;;;;;;12.88;100.00;98041.00;5011996;28;20053;-80
2021/05/08 15:17:03;;;;;;;3.22;0.68;;;;;;;12.86;100.00;98047.09;5014223;28;20061;-79
2021/05/08 15:20:07;;;;;;;2.05;0.35;;;;;;;12.84;100.00;98040.56;5011753;28;20057;-79
2021/05/08 15:23:10;;;;;;;1.30;0.30;;;;;;;12.89;100.00;98039.69;5014538;28;20060;-78
2021/05/08 15:26:13;;;;;;;1.10;0.40;;;;;;;12.97;100.00;98043.38;5013443;28;20060;-79
2021/05/08 15:29:17;;;;;;;0.22;0.22;;;;;;;13.18;100.00;98043.53;5010843;28;20065;-81
2021/05/08 15:32:20;;;;;;;0.63;0.55;;;;;;;14.09;100.00;98039.84;5011306;28;20065;-79
2021/05/08 15:35:24;;;;;;;1.05;0.57;;;;;;;14.53;100.00;98026.88;5011269;28;20065;-79
2021/05/08 15:38:28;;;;;;;2.83;0.43;;;;;;;14.52;100.00;98031.72;5011495;28;20511;-79
2021/05/08 15:41:35;;;;;;;1.00;0.90;;;;;;;14.53;100.00;98041.59;5012100;28;20057;-79
2021/05/08 15:44:39;;;;;;;1.42;0.35;;;;;;;14.39;100.00;98042.97;5012033;28;20061;-77
2021/05/08 15:47:43;;;;;;;0.82;0.28;;;;;;;14.13;100.00;98034.66;5011721;28;20065;-77
2021/05/08 15:50:51;;;;;;;0.90;0.35;;;;;;;13.89;100.00;98026.53;5010887;28;20069;-78
2021/05/08 15:53:55;;;;;;;1.50;0.70;;;;;;;13.76;100.00;98034.97;5011300;28;20415;-78